createdAt,value
2022-10-07T00:00:34.628Z,9.747221
2022-10-07T00:01:34.712Z,9.747179
2022-10-07T00:02:34.664Z,9.747723
2022-10-07T00:03:34.612Z,9.748691
2022-10-07T00:04:34.605Z,9.748387
2022-10-07T00:05:34.590Z,9.746910
2022-10-07T00:06:34.609Z,9.746784
2022-10-07T00:07:34.572Z,9.746778
2022-10-07T00:08:34.567Z,9.746761
2022-10-07T00:09:34.569Z,9.747592
2022-10-07T00:10:34.558Z,9.749194
2022-10-07T00:11:34.571Z,9.749637
2022-10-07T00:12:34.540Z,9.749462
2022-10-07T00:13:34.529Z,9.749408
2022-10-07T00:14:34.518Z,9.750214
2022-10-07T00:15:35.513Z,9.748733
2022-10-07T00:16:34.589Z,9.746997
2022-10-07T00:17:35.495Z,9.746664
2022-10-07T00:18:34.486Z,9.747433
2022-10-07T00:19:34.482Z,9.747778
2022-10-07T00:20:34.472Z,9.746441
2022-10-07T00:21:34.503Z,9.745854
2022-10-07T00:22:34.462Z,9.746655
2022-10-07T00:23:34.459Z,9.746822
2022-10-07T00:24:34.448Z,9.746529
2022-10-07T00:25:34.528Z,9.746383
2022-10-07T00:26:34.447Z,9.746580
2022-10-07T00:27:34.415Z,9.745755
2022-10-07T00:28:34.450Z,9.746068
2022-10-07T00:29:34.403Z,9.746227
2022-10-07T00:30:34.416Z,9.746529
2022-10-07T00:31:34.417Z,9.746220
2022-10-07T00:32:34.379Z,9.745585
2022-10-07T00:33:34.370Z,9.745049
2022-10-07T00:34:34.361Z,9.744944
2022-10-07T00:35:34.284Z,9.745485
2022-10-07T00:36:34.329Z,9.745378
2022-10-07T00:37:34.270Z,9.745517
2022-10-07T00:38:34.230Z,9.745461
2022-10-07T00:39:34.224Z,9.745517
2022-10-07T00:40:34.217Z,9.745350
2022-10-07T00:41:34.234Z,9.745295
2022-10-07T00:42:34.200Z,9.745152
2022-10-07T00:43:34.195Z,9.745243
2022-10-07T00:44:34.183Z,9.745401
2022-10-07T00:45:34.207Z,9.745399
2022-10-07T00:46:34.208Z,9.745331
2022-10-07T00:47:34.174Z,9.745140
2022-10-07T00:48:34.152Z,9.745281
2022-10-07T00:49:34.142Z,9.745333
2022-10-07T00:50:34.133Z,9.745258
2022-10-07T00:51:34.150Z,9.744946
2022-10-07T00:52:34.120Z,9.745151
2022-10-07T00:53:34.114Z,9.745169
2022-10-07T00:54:34.114Z,9.745136
2022-10-07T00:55:34.093Z,9.745221
2022-10-07T00:56:34.112Z,9.745211
2022-10-07T00:57:34.083Z,9.745172
2022-10-07T00:58:34.072Z,9.745257
2022-10-07T00:59:34.054Z,9.745158
2022-10-07T01:00:35.055Z,9.744921
2022-10-07T01:01:34.135Z,9.745140
2022-10-07T01:02:35.099Z,9.745250
2022-10-07T01:03:34.032Z,9.745371
2022-10-07T01:04:34.024Z,9.745434
2022-10-07T01:05:34.018Z,9.745331
2022-10-07T01:06:34.045Z,9.745522
2022-10-07T01:07:34.002Z,9.745478
2022-10-07T01:08:33.994Z,9.745551
2022-10-07T01:09:33.982Z,9.745492
2022-10-07T01:10:33.974Z,9.745592
2022-10-07T01:11:33.971Z,9.745719
2022-10-07T01:12:33.988Z,9.745831
2022-10-07T01:13:33.958Z,9.745678
2022-10-07T01:14:33.951Z,9.745607
2022-10-07T01:15:33.940Z,9.745695
2022-10-07T01:16:33.980Z,9.745869
2022-10-07T01:17:33.950Z,9.745762
2022-10-07T01:18:33.913Z,9.745753
2022-10-07T01:19:33.903Z,9.745738
2022-10-07T01:20:33.900Z,9.745783
2022-10-07T01:21:33.888Z,9.745803
2022-10-07T01:22:33.911Z,9.745788
2022-10-07T01:23:33.910Z,9.745864
2022-10-07T01:24:33.860Z,9.745874
2022-10-07T01:25:33.853Z,9.745871
2022-10-07T01:26:33.850Z,9.745752
2022-10-07T01:27:33.866Z,9.745881
2022-10-07T01:28:33.945Z,9.745570
2022-10-07T01:29:33.824Z,9.746050
2022-10-07T01:30:33.864Z,9.746243
2022-10-07T01:31:33.819Z,9.746276
2022-10-07T01:32:33.835Z,9.746058
2022-10-07T01:33:33.816Z,9.745956
2022-10-07T01:34:33.783Z,9.745956
2022-10-07T01:35:33.782Z,9.745956
2022-10-07T01:36:33.774Z,9.745826
2022-10-07T01:37:33.789Z,9.745649
2022-10-07T01:38:33.767Z,9.745311
2022-10-07T01:39:33.751Z,9.745493
2022-10-07T01:40:33.740Z,9.745493
2022-10-07T01:41:33.738Z,9.745493
2022-10-07T01:42:33.751Z,9.745601
2022-10-07T01:43:33.715Z,9.745707
2022-10-07T01:44:33.709Z,9.745948
2022-10-07T01:45:33.699Z,9.745708
2022-10-07T01:46:33.726Z,9.745776
2022-10-07T01:47:33.707Z,9.745709
2022-10-07T01:48:33.679Z,9.746037
2022-10-07T01:49:33.666Z,9.746045
2022-10-07T01:50:33.659Z,9.745689
2022-10-07T01:51:33.664Z,9.746037
2022-10-07T01:52:33.672Z,9.746306
2022-10-07T01:53:33.636Z,9.746368
2022-10-07T01:54:33.631Z,9.746245
2022-10-07T01:55:33.619Z,9.745856
2022-10-07T01:56:33.619Z,9.745750
2022-10-07T01:57:33.630Z,9.745750
2022-10-07T01:58:33.594Z,9.745769
2022-10-07T01:59:33.595Z,9.745729
2022-10-07T02:00:33.593Z,9.745488
2022-10-07T02:01:33.609Z,9.745522
2022-10-07T02:02:33.588Z,9.745617
2022-10-07T02:03:33.588Z,9.745516
2022-10-07T02:04:33.549Z,9.745633
2022-10-07T02:05:33.540Z,9.745787
2022-10-07T02:06:33.535Z,9.745378
2022-10-07T02:07:33.553Z,9.745310
2022-10-07T02:08:33.519Z,9.745775
2022-10-07T02:09:33.510Z,9.745476
2022-10-07T02:10:33.502Z,9.745473
2022-10-07T02:11:33.499Z,9.745798
2022-10-07T02:12:33.512Z,9.745700
2022-10-07T02:13:33.484Z,9.745491
2022-10-07T02:14:33.472Z,9.745316
2022-10-07T02:15:33.497Z,9.745437
2022-10-07T02:16:33.456Z,9.745336
2022-10-07T02:17:33.479Z,9.745358
2022-10-07T02:18:33.441Z,9.745296
2022-10-07T02:19:33.433Z,9.745384
2022-10-07T02:20:33.434Z,9.745620
2022-10-07T02:21:33.424Z,9.745620
2022-10-07T02:22:33.438Z,9.745379
2022-10-07T02:23:33.402Z,9.745394
2022-10-07T02:24:33.395Z,9.745537
2022-10-07T02:25:33.387Z,9.745570
2022-10-07T02:26:33.379Z,9.745419
2022-10-07T02:27:33.395Z,9.745424
2022-10-07T02:28:33.428Z,9.745388
2022-10-07T02:29:33.358Z,9.745423
2022-10-07T02:30:33.352Z,9.745363
2022-10-07T02:31:33.478Z,9.745394
2022-10-07T02:32:33.359Z,9.745256
2022-10-07T02:33:33.327Z,9.745346
2022-10-07T02:34:33.318Z,9.745485
2022-10-07T02:35:33.311Z,9.745387
2022-10-07T02:36:33.301Z,9.745626
2022-10-07T02:37:33.321Z,9.745358
2022-10-07T02:38:33.284Z,9.745404
2022-10-07T02:39:33.280Z,9.745959
2022-10-07T02:40:33.269Z,9.745833
2022-10-07T02:41:33.251Z,9.745896
2022-10-07T02:42:34.277Z,9.745118
2022-10-07T02:43:33.248Z,9.745304
2022-10-07T02:44:33.241Z,9.745619
2022-10-07T02:45:33.233Z,9.745919
2022-10-07T02:46:33.269Z,9.745522
2022-10-07T02:47:33.243Z,9.745443
2022-10-07T02:48:33.193Z,9.745593
2022-10-07T02:49:34.200Z,9.745443
2022-10-07T02:50:33.191Z,9.745420
2022-10-07T02:51:33.188Z,9.745578
2022-10-07T02:52:33.204Z,9.745476
2022-10-07T02:53:33.169Z,9.745600
2022-10-07T02:54:33.157Z,9.745489
2022-10-07T02:55:33.142Z,9.744946
2022-10-07T02:56:34.149Z,9.744959
2022-10-07T02:57:33.139Z,9.745070
2022-10-07T02:58:33.157Z,9.745317
2022-10-07T02:59:33.124Z,9.745079
2022-10-07T03:00:33.117Z,9.745286
2022-10-07T03:01:33.151Z,9.745110
2022-10-07T03:02:33.100Z,9.745275
2022-10-07T03:03:33.151Z,9.745837
2022-10-07T03:04:33.087Z,9.745475
2022-10-07T03:05:33.080Z,9.745666
2022-10-07T03:06:33.075Z,9.745707
2022-10-07T03:07:33.061Z,9.745831
2022-10-07T03:08:33.093Z,9.745533
2022-10-07T03:09:33.051Z,9.745463
2022-10-07T03:10:33.041Z,9.745957
2022-10-07T03:11:33.030Z,9.745366
2022-10-07T03:12:33.023Z,9.745446
2022-10-07T03:13:33.041Z,9.745477
2022-10-07T03:14:33.008Z,9.746218
2022-10-07T03:15:33.063Z,9.745589
2022-10-07T03:16:33.081Z,9.745617
2022-10-07T03:17:32.992Z,9.745405
2022-10-07T03:18:33.004Z,9.745317
2022-10-07T03:19:32.973Z,9.745545
2022-10-07T03:20:32.960Z,9.745495
2022-10-07T03:21:32.962Z,9.745602
2022-10-07T03:22:32.952Z,9.745543
2022-10-07T03:23:32.963Z,9.745506
2022-10-07T03:24:32.931Z,9.745557
2022-10-07T03:25:32.925Z,9.745485
2022-10-07T03:26:32.918Z,9.745420
2022-10-07T03:27:32.907Z,9.745520
2022-10-07T03:28:32.932Z,9.745531
2022-10-07T03:29:32.892Z,9.745507
2022-10-07T03:30:32.879Z,9.745681
2022-10-07T03:31:32.938Z,9.745641
2022-10-07T03:32:32.871Z,9.745712
2022-10-07T03:33:32.885Z,9.745606
2022-10-07T03:34:32.847Z,9.745555
2022-10-07T03:35:32.843Z,9.745675
2022-10-07T03:36:32.834Z,9.745654
2022-10-07T03:37:32.823Z,9.745737
2022-10-07T03:38:32.841Z,9.745541
2022-10-07T03:39:32.810Z,9.745646
2022-10-07T03:40:32.802Z,9.745537
2022-10-07T03:41:32.791Z,9.745496
2022-10-07T03:42:32.787Z,9.745580
2022-10-07T03:43:32.804Z,9.745562
2022-10-07T03:44:32.772Z,9.745565
2022-10-07T03:45:32.771Z,9.745481
2022-10-07T03:46:32.811Z,9.745440
2022-10-07T03:47:32.748Z,9.745665
2022-10-07T03:48:32.769Z,9.745587
2022-10-07T03:49:32.734Z,9.745590
2022-10-07T03:50:32.727Z,9.745528
2022-10-07T03:51:32.717Z,9.745643
2022-10-07T03:52:32.723Z,9.745439
2022-10-07T03:53:32.724Z,9.745417
2022-10-07T03:54:32.696Z,9.745437
2022-10-07T03:55:32.689Z,9.745436
2022-10-07T03:56:32.684Z,9.745747
2022-10-07T03:57:32.678Z,9.745358
2022-10-07T03:58:32.690Z,9.745425
2022-10-07T03:59:32.664Z,9.745365
2022-10-07T04:00:32.655Z,9.745236
2022-10-07T04:01:32.698Z,9.745737
2022-10-07T04:02:32.720Z,9.745404
2022-10-07T04:03:32.627Z,9.745420
2022-10-07T04:04:32.617Z,9.745398
2022-10-07T04:05:32.612Z,9.745204
2022-10-07T04:06:32.605Z,9.745254
2022-10-07T04:07:32.628Z,9.745390
2022-10-07T04:08:32.777Z,9.745027
2022-10-07T04:09:33.580Z,9.745349
2022-10-07T04:10:32.575Z,9.745500
2022-10-07T04:11:32.557Z,9.745330
2022-10-07T04:12:33.595Z,9.745372
2022-10-07T04:13:32.555Z,9.745436
2022-10-07T04:14:32.545Z,9.745510
2022-10-07T04:15:32.535Z,9.745522
2022-10-07T04:16:35.937Z,9.745450
2022-10-07T04:17:34.552Z,9.745215
2022-10-07T04:18:32.511Z,9.745395
2022-10-07T04:19:32.503Z,9.745261
2022-10-07T04:20:32.495Z,9.745412
2022-10-07T04:21:32.490Z,9.745115
2022-10-07T04:22:32.479Z,9.745727
2022-10-07T04:23:32.502Z,9.745654
2022-10-07T04:24:32.468Z,9.745511
2022-10-07T04:25:32.464Z,9.745437
2022-10-07T04:26:32.456Z,9.745542
2022-10-07T04:27:50.674Z,9.745255
2022-10-07T04:28:34.509Z,9.745564
2022-10-07T04:29:38.176Z,9.745346
2022-10-07T04:30:34.423Z,9.745183
2022-10-07T04:31:32.457Z,9.745221
2022-10-07T04:32:32.407Z,9.745061
2022-10-07T04:33:32.424Z,9.745343
2022-10-07T04:34:32.389Z,9.745561
2022-10-07T04:35:32.383Z,9.745537
2022-10-07T04:36:32.375Z,9.745493
2022-10-07T04:37:32.365Z,9.745435
2022-10-07T04:38:32.381Z,9.745795
2022-10-07T04:39:56.151Z,9.745812
2022-10-07T04:40:34.345Z,9.745910
2022-10-07T04:41:32.376Z,9.745610
2022-10-07T04:42:32.326Z,9.745625
2022-10-07T04:43:32.339Z,9.745563
2022-10-07T04:44:32.311Z,9.745554
2022-10-07T04:45:32.302Z,9.745549
2022-10-07T04:46:32.359Z,9.745536
2022-10-07T04:47:32.286Z,9.745410
2022-10-07T04:48:32.303Z,9.745227
2022-10-07T04:49:32.270Z,9.745009
2022-10-07T04:50:32.259Z,9.745001
2022-10-07T04:51:32.252Z,9.745399
2022-10-07T04:52:32.245Z,9.745213
2022-10-07T04:53:32.264Z,9.745117
2022-10-07T04:54:32.232Z,9.745358
2022-10-07T04:55:32.228Z,9.745211
2022-10-07T04:56:32.213Z,9.745621
2022-10-07T04:57:32.210Z,9.745288
2022-10-07T04:58:32.221Z,9.745374
2022-10-07T04:59:33.127Z,9.745242
2022-10-07T05:00:32.206Z,9.744566
2022-10-07T05:01:32.174Z,9.744594
2022-10-07T05:02:32.231Z,9.745521
2022-10-07T05:03:32.189Z,9.746046
2022-10-07T05:04:32.151Z,9.745784
2022-10-07T05:05:32.144Z,9.745525
2022-10-07T05:06:32.133Z,9.745676
2022-10-07T05:07:33.132Z,9.745658
2022-10-07T05:08:32.139Z,9.745291
2022-10-07T05:09:32.142Z,9.744981
2022-10-07T05:10:32.111Z,9.745515
2022-10-07T05:11:32.103Z,9.745662
2022-10-07T05:12:32.091Z,9.745728
2022-10-07T05:13:32.078Z,9.745582
2022-10-07T05:14:32.103Z,9.745543
2022-10-07T05:15:32.066Z,9.745457
2022-10-07T05:16:32.153Z,9.745303
2022-10-07T05:17:32.060Z,9.744989
2022-10-07T05:18:32.047Z,9.745295
2022-10-07T05:19:32.063Z,9.745718
2022-10-07T05:20:32.029Z,9.745452
2022-10-07T05:21:32.018Z,9.745188
2022-10-07T05:22:32.013Z,9.745079
2022-10-07T05:23:32.006Z,9.745253
2022-10-07T05:24:32.025Z,9.745240
2022-10-07T05:25:31.988Z,9.745267
2022-10-07T05:26:31.988Z,9.745475
2022-10-07T05:27:31.972Z,9.745430
2022-10-07T05:28:32.145Z,9.745350
2022-10-07T05:29:32.006Z,9.745113
2022-10-07T05:30:31.954Z,9.745307
2022-10-07T05:31:32.002Z,9.745271
2022-10-07T05:32:31.934Z,9.745512
2022-10-07T05:33:31.921Z,9.745461
2022-10-07T05:34:32.940Z,9.745440
2022-10-07T05:35:31.910Z,9.745372
2022-10-07T05:36:31.908Z,9.745193
2022-10-07T05:37:31.899Z,9.745409
2022-10-07T05:38:31.887Z,9.745452
2022-10-07T05:39:31.906Z,9.745621
2022-10-07T05:40:31.875Z,9.745504
2022-10-07T05:41:31.864Z,9.745495
2022-10-07T05:42:31.861Z,9.745603
2022-10-07T05:43:31.854Z,9.745749
2022-10-07T05:44:31.869Z,9.745668
2022-10-07T05:45:31.889Z,9.745380
2022-10-07T05:46:31.827Z,9.745532
2022-10-07T05:47:31.906Z,9.745537
2022-10-07T05:48:36.667Z,9.745603
2022-10-07T05:49:33.825Z,9.745727
2022-10-07T05:50:31.794Z,9.745624
2022-10-07T05:51:31.788Z,9.745343
2022-10-07T05:52:31.781Z,9.745546
2022-10-07T05:53:31.776Z,9.745535
2022-10-07T05:54:31.786Z,9.745709
2022-10-07T05:55:33.153Z,9.745719
2022-10-07T05:56:31.750Z,9.745810
2022-10-07T05:57:31.744Z,9.745498
2022-10-07T05:58:31.731Z,9.745668
2022-10-07T05:59:31.749Z,9.745626
2022-10-07T06:00:31.721Z,9.745677
2022-10-07T06:01:31.709Z,9.745689
2022-10-07T06:02:31.814Z,9.745757
2022-10-07T06:03:31.689Z,9.745577
2022-10-07T06:04:31.709Z,9.745745
2022-10-07T06:05:31.673Z,9.745886
2022-10-07T06:06:31.669Z,9.745789
2022-10-07T06:07:31.660Z,9.745636
2022-10-07T06:08:31.678Z,9.745475
2022-10-07T06:09:31.639Z,9.745622
2022-10-07T06:10:31.629Z,9.745666
2022-10-07T06:11:31.629Z,9.745518
2022-10-07T06:12:31.615Z,9.745765
2022-10-07T06:13:31.636Z,9.745751
2022-10-07T06:14:31.606Z,9.745715
2022-10-07T06:15:31.595Z,9.745629
2022-10-07T06:16:31.639Z,9.745566
2022-10-07T06:17:31.574Z,9.745579
2022-10-07T06:18:31.592Z,9.745497
2022-10-07T06:19:31.562Z,9.745543
2022-10-07T06:20:31.554Z,9.745561
2022-10-07T06:21:31.555Z,9.745582
2022-10-07T06:22:31.536Z,9.745772
2022-10-07T06:23:31.554Z,9.745704
2022-10-07T06:24:31.516Z,9.745359
2022-10-07T06:25:31.512Z,9.745390
2022-10-07T06:26:31.506Z,9.745492
2022-10-07T06:27:31.493Z,9.745655
2022-10-07T06:28:31.592Z,9.745183
2022-10-07T06:29:31.484Z,9.745481
2022-10-07T06:30:31.537Z,9.745613
2022-10-07T06:31:31.467Z,9.745565
2022-10-07T06:32:31.457Z,9.745641
2022-10-07T06:33:31.471Z,9.745656
2022-10-07T06:34:31.437Z,9.745464
2022-10-07T06:35:31.428Z,9.745353
2022-10-07T06:36:31.497Z,9.745403
2022-10-07T06:37:31.412Z,9.745378
2022-10-07T06:38:31.430Z,9.745454
2022-10-07T06:39:31.400Z,9.745554
2022-10-07T06:40:31.394Z,9.745287
2022-10-07T06:41:31.385Z,9.745615
2022-10-07T06:42:31.383Z,9.745763
2022-10-07T06:43:31.387Z,9.745664
2022-10-07T06:44:31.359Z,9.745726
2022-10-07T06:45:31.350Z,9.745764
2022-10-07T06:46:31.417Z,9.745563
2022-10-07T06:47:31.335Z,9.745566
2022-10-07T06:48:31.349Z,9.745603
2022-10-07T06:49:31.348Z,9.745682
2022-10-07T06:50:31.316Z,9.745501
2022-10-07T06:51:31.302Z,9.745374
2022-10-07T06:52:31.289Z,9.745401
2022-10-07T06:53:31.310Z,9.745481
2022-10-07T06:54:31.276Z,9.745629
2022-10-07T06:55:31.268Z,9.745514
2022-10-07T06:56:31.260Z,9.745288
2022-10-07T06:57:45.288Z,9.745388
2022-10-07T06:58:33.282Z,9.745467
2022-10-07T06:59:31.237Z,9.745674
2022-10-07T07:00:31.233Z,9.745384
2022-10-07T07:01:31.275Z,9.745580
2022-10-07T07:02:31.259Z,9.745118
2022-10-07T07:03:31.228Z,9.744967
2022-10-07T07:04:31.199Z,9.745076
2022-10-07T07:05:31.186Z,9.745497
2022-10-07T07:06:31.178Z,9.746130
2022-10-07T07:07:31.181Z,9.745378
2022-10-07T07:08:31.194Z,9.745494
2022-10-07T07:09:31.159Z,9.745483
2022-10-07T07:10:31.150Z,9.745635
2022-10-07T07:11:31.144Z,9.745620
2022-10-07T07:12:31.136Z,9.745757
2022-10-07T07:13:31.174Z,9.745865
2022-10-07T07:14:31.123Z,9.745825
2022-10-07T07:15:31.116Z,9.745407
2022-10-07T07:16:31.153Z,9.745209
2022-10-07T07:17:31.096Z,9.744906
2022-10-07T07:18:31.112Z,9.744609
2022-10-07T07:19:31.084Z,9.744951
2022-10-07T07:20:31.078Z,9.745637
2022-10-07T07:21:31.163Z,9.745610
2022-10-07T07:22:31.066Z,9.745709
2022-10-07T07:23:31.080Z,9.745663
2022-10-07T07:24:31.044Z,9.745404
2022-10-07T07:25:31.047Z,9.745249
2022-10-07T07:26:31.024Z,9.744953
2022-10-07T07:27:31.016Z,9.745311
2022-10-07T07:28:31.090Z,9.745315
2022-10-07T07:29:31.007Z,9.745276
2022-10-07T07:30:31.029Z,9.745093
2022-10-07T07:31:30.984Z,9.745329
2022-10-07T07:32:30.999Z,9.745351
2022-10-07T07:33:30.996Z,9.745310
2022-10-07T07:34:30.975Z,9.745498
2022-10-07T07:35:30.959Z,9.745272
2022-10-07T07:36:30.958Z,9.745062
2022-10-07T07:37:30.944Z,9.745157
2022-10-07T07:38:30.965Z,9.745150
2022-10-07T07:39:30.929Z,9.745618
2022-10-07T07:40:30.918Z,9.746065
2022-10-07T07:41:30.914Z,9.745116
2022-10-07T07:42:30.906Z,9.745715
2022-10-07T07:43:30.923Z,9.745409
2022-10-07T07:44:34.121Z,9.745287
2022-10-07T07:45:31.883Z,9.745525
2022-10-07T07:46:30.879Z,9.745669
2022-10-07T07:47:30.868Z,9.745524
2022-10-07T07:48:30.886Z,9.745517
2022-10-07T07:49:30.850Z,9.745403
2022-10-07T07:50:30.858Z,9.745381
2022-10-07T07:51:30.833Z,9.745433
2022-10-07T07:52:30.827Z,9.745562
2022-10-07T07:53:30.839Z,9.745184
2022-10-07T07:54:30.811Z,9.745377
2022-10-07T07:55:30.799Z,9.745317
2022-10-07T07:56:30.804Z,9.745431
2022-10-07T07:57:30.781Z,9.745568
2022-10-07T07:58:30.802Z,9.745529
2022-10-07T07:59:30.772Z,9.745635
2022-10-07T08:00:30.765Z,9.745741
2022-10-07T08:01:30.787Z,9.745713
2022-10-07T08:02:30.777Z,9.746214
2022-10-07T08:03:30.765Z,9.746013
2022-10-07T08:04:30.731Z,9.745935
2022-10-07T08:05:30.727Z,9.745653
2022-10-07T08:06:30.718Z,9.745710
2022-10-07T08:07:30.704Z,9.745709
2022-10-07T08:08:30.736Z,9.745752
2022-10-07T08:09:30.689Z,9.745816
2022-10-07T08:10:30.683Z,9.745860
2022-10-07T08:11:30.677Z,9.745673
2022-10-07T08:12:30.683Z,9.745748
2022-10-07T08:13:30.664Z,9.745611
2022-10-07T08:14:30.684Z,9.745803
2022-10-07T08:15:30.674Z,9.745705
2022-10-07T08:16:30.656Z,9.745784
2022-10-07T08:17:30.627Z,9.745854
2022-10-07T08:18:30.619Z,9.745396
2022-10-07T08:19:30.637Z,9.745493
2022-10-07T08:20:30.589Z,9.745443
2022-10-07T08:21:31.594Z,9.745445
2022-10-07T08:22:30.592Z,9.745362
2022-10-07T08:23:30.579Z,9.745493
2022-10-07T08:24:30.596Z,9.745456
2022-10-07T08:25:30.577Z,9.745423
2022-10-07T08:26:30.571Z,9.745390
2022-10-07T08:27:30.548Z,9.745364
2022-10-07T08:28:30.603Z,9.745218
2022-10-07T08:29:30.559Z,9.745313
2022-10-07T08:30:30.520Z,9.745694
2022-10-07T08:31:31.514Z,9.745637
2022-10-07T08:32:30.512Z,9.745457
2022-10-07T08:33:30.501Z,9.745399
2022-10-07T08:34:30.522Z,9.745489
2022-10-07T08:35:30.487Z,9.745355
2022-10-07T08:36:30.481Z,9.745164
2022-10-07T08:37:30.474Z,9.745508
2022-10-07T08:38:30.464Z,9.745423
2022-10-07T08:39:30.480Z,9.745454
2022-10-07T08:40:30.444Z,9.745614
2022-10-07T08:41:30.436Z,9.745378
2022-10-07T08:42:30.430Z,9.745251
2022-10-07T08:43:30.424Z,9.745397
2022-10-07T08:44:30.442Z,9.745157
2022-10-07T08:45:30.420Z,9.745424
2022-10-07T08:46:30.449Z,9.745298
2022-10-07T08:47:30.401Z,9.745413
2022-10-07T08:48:30.385Z,9.745610
2022-10-07T08:49:30.405Z,9.745929
2022-10-07T08:50:30.370Z,9.745289
2022-10-07T08:51:30.359Z,9.745485
2022-10-07T08:52:31.356Z,9.745605
2022-10-07T08:53:30.349Z,9.745501
2022-10-07T08:54:30.378Z,9.745456
2022-10-07T08:55:30.336Z,9.745510
2022-10-07T08:56:30.332Z,9.745727
2022-10-07T08:57:30.319Z,9.745807
2022-10-07T08:58:30.309Z,9.745506
2022-10-07T08:59:30.332Z,9.745590
2022-10-07T09:00:30.292Z,9.745573
2022-10-07T09:01:30.360Z,9.745366
2022-10-07T09:02:30.323Z,9.745259
2022-10-07T09:03:30.273Z,9.745125
2022-10-07T09:04:30.289Z,9.745201
2022-10-07T09:05:30.254Z,9.745058
2022-10-07T09:06:30.251Z,9.745325
2022-10-07T09:07:30.243Z,9.745501
2022-10-07T09:08:30.240Z,9.745466
2022-10-07T09:09:30.265Z,9.745420
2022-10-07T09:10:30.219Z,9.745369
2022-10-07T09:11:30.209Z,9.745295
2022-10-07T09:12:30.206Z,9.745400
2022-10-07T09:13:30.205Z,9.745171
2022-10-07T09:14:30.221Z,9.745182
2022-10-07T09:15:30.206Z,9.745453
2022-10-07T09:16:30.171Z,9.745569
2022-10-07T09:17:34.896Z,9.745551
2022-10-07T09:18:32.157Z,9.745629
2022-10-07T09:19:30.158Z,9.745873
2022-10-07T09:20:30.176Z,9.745718
2022-10-07T09:21:30.139Z,9.745528
2022-10-07T09:22:30.139Z,9.745593
2022-10-07T09:23:30.125Z,9.745834
2022-10-07T09:24:30.225Z,9.745671
2022-10-07T09:25:30.109Z,9.745493
2022-10-07T09:26:30.102Z,9.745401
2022-10-07T09:27:30.101Z,9.745563
2022-10-07T09:28:30.129Z,9.745645
2022-10-07T09:29:30.079Z,9.745628
2022-10-07T09:30:30.099Z,9.745310
2022-10-07T09:31:30.118Z,9.745484
2022-10-07T09:32:30.056Z,9.745589
2022-10-07T09:33:30.046Z,9.745709
2022-10-07T09:34:30.036Z,9.745472
2022-10-07T09:35:30.059Z,9.745437
2022-10-07T09:36:30.026Z,9.745619
2022-10-07T09:37:30.018Z,9.745690
2022-10-07T09:38:30.011Z,9.745494
2022-10-07T09:39:30.030Z,9.745472
2022-10-07T09:40:29.995Z,9.745686
2022-10-07T09:41:31.339Z,9.745717
2022-10-07T09:42:30.983Z,9.745600
2022-10-07T09:43:29.973Z,9.745555
2022-10-07T09:44:29.966Z,9.745736
2022-10-07T09:45:29.979Z,9.745503
2022-10-07T09:46:29.995Z,9.745363
2022-10-07T09:47:29.936Z,9.745576
2022-10-07T09:48:29.934Z,9.745686
2022-10-07T09:49:29.929Z,9.746082
2022-10-07T09:50:29.946Z,9.746252
2022-10-07T09:51:29.912Z,9.746082
2022-10-07T09:52:29.903Z,9.745892
2022-10-07T09:53:29.896Z,9.745912
2022-10-07T09:54:29.890Z,9.745655
2022-10-07T09:55:29.903Z,9.745637
2022-10-07T09:56:29.894Z,9.745624
2022-10-07T09:57:29.876Z,9.745611
2022-10-07T09:58:29.860Z,9.745642
2022-10-07T09:59:29.880Z,9.745493
2022-10-07T10:00:29.842Z,9.745485
2022-10-07T10:01:29.830Z,9.745213
2022-10-07T10:02:29.934Z,9.745555
2022-10-07T10:03:29.859Z,9.745842
2022-10-07T10:04:29.844Z,9.746073
2022-10-07T10:05:29.804Z,9.745807
2022-10-07T10:06:29.791Z,9.745848
2022-10-07T10:07:29.784Z,9.745769
2022-10-07T10:08:29.776Z,9.745698
2022-10-07T10:09:29.768Z,9.745704
2022-10-07T10:10:29.788Z,9.745525
2022-10-07T10:11:29.753Z,9.745881
2022-10-07T10:12:29.748Z,9.745873
2022-10-07T10:13:29.741Z,9.745793
2022-10-07T10:14:29.723Z,9.745595
2022-10-07T10:15:30.752Z,9.745698
2022-10-07T10:16:29.716Z,9.745683
2022-10-07T10:17:29.708Z,9.745377
2022-10-07T10:18:29.704Z,9.745209
2022-10-07T10:19:33.490Z,9.745414
2022-10-07T10:20:31.708Z,9.745550
2022-10-07T10:21:29.690Z,9.744950
2022-10-07T10:22:29.671Z,9.746136
2022-10-07T10:23:29.665Z,9.745691
2022-10-07T10:24:29.663Z,9.745603
2022-10-07T10:25:29.676Z,9.745646
2022-10-07T10:26:33.909Z,9.745406
2022-10-07T10:27:30.634Z,9.745706
2022-10-07T10:28:29.732Z,9.745549
2022-10-07T10:29:29.615Z,9.745488
2022-10-07T10:30:29.634Z,9.745852
2022-10-07T10:31:30.673Z,9.745236
2022-10-07T10:32:29.596Z,9.746264
2022-10-07T10:33:29.587Z,9.745670
2022-10-07T10:34:29.589Z,9.745637
2022-10-07T10:35:29.600Z,9.745254
2022-10-07T10:36:29.571Z,9.745328
2022-10-07T10:37:29.554Z,9.745481
2022-10-07T10:38:29.549Z,9.745675
2022-10-07T10:39:29.540Z,9.745657
2022-10-07T10:40:29.534Z,9.745345
2022-10-07T10:41:29.550Z,9.745893
2022-10-07T10:42:31.291Z,9.745544
2022-10-07T10:43:29.507Z,9.745405
2022-10-07T10:44:29.504Z,9.745320
2022-10-07T10:45:29.489Z,9.745323
2022-10-07T10:46:29.535Z,9.745386
2022-10-07T10:47:29.498Z,9.745236
2022-10-07T10:48:29.472Z,9.745248
2022-10-07T10:49:29.460Z,9.745316
2022-10-07T10:50:29.485Z,9.745324
2022-10-07T10:51:29.446Z,9.745500
2022-10-07T10:52:29.443Z,9.745687
2022-10-07T10:53:29.432Z,9.745832
2022-10-07T10:54:29.421Z,9.745853
2022-10-07T10:55:29.446Z,9.745524
2022-10-07T10:56:29.409Z,9.745470
2022-10-07T10:57:30.406Z,9.745654
2022-10-07T10:58:29.397Z,9.745588
2022-10-07T10:59:29.392Z,9.745509
2022-10-07T11:00:29.408Z,9.745293
2022-10-07T11:01:29.396Z,9.745192
2022-10-07T11:02:29.475Z,9.745515
2022-10-07T11:03:29.359Z,9.745532
2022-10-07T11:04:29.356Z,9.745647
2022-10-07T11:05:29.369Z,9.745715
2022-10-07T11:06:29.442Z,9.745664
2022-10-07T11:07:29.334Z,9.745697
2022-10-07T11:08:29.323Z,9.745714
2022-10-07T11:09:30.722Z,9.745689
2022-10-07T11:10:30.330Z,9.745489
2022-10-07T11:11:29.295Z,9.745626
2022-10-07T11:12:29.285Z,9.745596
2022-10-07T11:13:29.766Z,9.745598
2022-10-07T11:14:29.271Z,9.745539
2022-10-07T11:15:29.282Z,9.745675
2022-10-07T11:16:29.240Z,9.745559
2022-10-07T11:17:30.249Z,9.745480
2022-10-07T11:18:29.237Z,9.745350
2022-10-07T11:19:29.229Z,9.745510
2022-10-07T11:20:29.248Z,9.745482
2022-10-07T11:21:29.246Z,9.745888
2022-10-07T11:22:29.206Z,9.745614
2022-10-07T11:23:29.225Z,9.745608
2022-10-07T11:24:29.191Z,9.745360
2022-10-07T11:25:29.204Z,9.745360
2022-10-07T11:26:32.413Z,9.745490
2022-10-07T11:27:31.161Z,9.745127
2022-10-07T11:28:29.214Z,9.745442
2022-10-07T11:29:29.147Z,9.745269
2022-10-07T11:30:29.167Z,9.745214
2022-10-07T11:31:29.160Z,9.745085
2022-10-07T11:32:29.129Z,9.745217
2022-10-07T11:33:29.119Z,9.745399
2022-10-07T11:34:29.133Z,9.745021
2022-10-07T11:35:29.103Z,9.745426
2022-10-07T11:36:29.079Z,9.745386
2022-10-07T11:37:30.092Z,9.745687
2022-10-07T11:38:29.075Z,9.745228
2022-10-07T11:39:29.097Z,9.745365
2022-10-07T11:40:29.211Z,9.745351
2022-10-07T11:41:30.052Z,9.745288
2022-10-07T11:42:29.037Z,9.745444
2022-10-07T11:43:30.034Z,9.745628
2022-10-07T11:44:29.058Z,9.745696